Time;durP1;ratioP1;P1;durP2;ratioP2;P2;SDS_P1;SDS_P2;PMS_P1;PMS_P2;Temp;Humidity;BMP_temperature;BMP_pressure;BME280_temperature;BME280_humidity;BME280_pressure;Samples;Min_cycle;Max_cycle;Signal;HPM_P1;HPM_P2
2022/03/01 00:00:08;;;;;;;17.00;12.68;;;2.60;99.90;;;;;;5042179;28;20053;-62
2022/03/01 00:02:44;;;;;;;17.13;12.23;;;2.50;99.90;;;;;;5037442;28;20507;-62
2022/03/01 00:05:10;;;;;;;16.38;12.40;;;2.60;99.90;;;;;;5044212;28;20049;-62
2022/03/01 00:07:36;;;;;;;15.63;12.13;;;2.50;99.90;;;;;;5044729;28;20057;-62
2022/03/01 00:10:03;;;;;;;18.15;13.25;;;2.50;99.90;;;;;;5045267;28;20041;-63
2022/03/01 00:12:31;;;;;;;16.80;13.05;;;2.50;99.90;;;;;;5044505;28;20096;-62
2022/03/01 00:14:57;;;;;;;16.70;12.57;;;2.50;99.90;;;;;;5059157;28;20638;-62
2022/03/01 00:17:23;;;;;;;16.45;11.82;;;2.40;99.90;;;;;;5044576;28;20291;-62
2022/03/01 00:19:49;;;;;;;17.60;13.93;;;2.40;99.90;;;;;;5027450;28;20053;-63
2022/03/01 00:22:15;;;;;;;14.95;11.02;;;2.40;99.90;;;;;;5043483;28;20051;-62
2022/03/01 00:24:42;;;;;;;17.17;13.02;;;2.40;99.90;;;;;;5043374;28;20802;-63
2022/03/01 00:27:08;;;;;;;16.65;12.15;;;2.30;99.90;;;;;;5042608;28;20053;-64
2022/03/01 00:29:34;;;;;;;14.55;11.50;;;2.30;99.90;;;;;;5006266;28;20129;-63
2022/03/01 00:32:00;;;;;;;17.40;12.38;;;2.30;99.90;;;;;;5043086;28;20196;-63
2022/03/01 00:34:26;;;;;;;19.50;12.82;;;2.30;99.90;;;;;;5042517;28;20131;-63
2022/03/01 00:36:52;;;;;;;15.15;12.15;;;2.30;99.90;;;;;;5052401;28;20702;-64
2022/03/01 00:39:18;;;;;;;15.60;11.70;;;2.20;99.90;;;;;;5046118;28;20049;-64
2022/03/01 00:41:45;;;;;;;14.98;12.00;;;2.20;99.90;;;;;;5046795;28;20155;-63
2022/03/01 00:44:11;;;;;;;15.68;12.15;;;2.20;99.90;;;;;;5045640;28;20191;-63
2022/03/01 00:46:37;;;;;;;17.38;13.63;;;2.20;99.90;;;;;;5026261;28;20057;-63
2022/03/01 00:49:03;;;;;;;14.90;12.25;;;2.10;99.90;;;;;;5023556;28;20045;-63
2022/03/01 00:51:30;;;;;;;16.33;12.20;;;2.10;99.90;;;;;;5042535;28;20041;-63
2022/03/01 00:53:56;;;;;;;15.70;12.35;;;2.10;99.90;;;;;;5006886;28;20053;-63
2022/03/01 00:56:22;;;;;;;18.92;12.98;;;2.10;99.90;;;;;;5001062;28;20102;-64
2022/03/01 00:58:48;;;;;;;15.40;12.40;;;2.00;99.90;;;;;;5044234;28;20037;-63
2022/03/01 01:01:15;;;;;;;16.75;13.52;;;2.10;99.90;;;;;;5041048;28;20045;-63
2022/03/01 01:03:41;;;;;;;19.23;13.13;;;2.00;99.90;;;;;;5009705;28;20464;-63
2022/03/01 01:06:07;;;;;;;17.45;12.38;;;2.00;99.90;;;;;;5040145;28;20048;-63
2022/03/01 01:08:33;;;;;;;17.63;12.60;;;1.90;99.90;;;;;;5025264;28;20056;-63
2022/03/01 01:10:59;;;;;;;16.80;12.95;;;1.90;99.90;;;;;;5040194;28;20528;-63
2022/03/01 01:13:25;;;;;;;17.25;12.07;;;1.90;99.90;;;;;;5044946;28;20048;-62
2022/03/01 01:15:51;;;;;;;16.70;13.52;;;1.80;99.90;;;;;;5038097;28;20130;-62
2022/03/01 01:18:18;;;;;;;16.85;13.10;;;1.80;99.90;;;;;;5043378;28;20063;-62
2022/03/01 01:20:44;;;;;;;16.70;12.27;;;1.80;99.90;;;;;;5043998;28;20065;-62
2022/03/01 01:23:11;;;;;;;17.67;13.68;;;1.80;99.90;;;;;;5041792;28;20542;-62
2022/03/01 01:25:37;;;;;;;17.38;12.60;;;1.80;99.90;;;;;;5041532;28;20088;-62
2022/03/01 01:28:04;;;;;;;17.92;12.88;;;1.80;99.90;;;;;;5025711;28;20057;-62
2022/03/01 01:30:33;;;;;;;21.30;13.30;;;1.80;99.90;;;;;;5025668;28;20526;-62
2022/03/01 01:32:59;;;;;;;18.70;13.18;;;1.80;99.90;;;;;;5043412;28;20408;-62
2022/03/01 01:35:27;;;;;;;15.80;11.30;;;1.90;99.90;;;;;;5041055;28;20045;-62
2022/03/01 01:37:55;;;;;;;19.67;13.60;;;1.90;99.90;;;;;;5033280;28;20059;-63
2022/03/01 01:40:25;;;;;;;18.35;13.05;;;1.90;99.90;;;;;;5044080;28;20060;-63
2022/03/01 01:42:51;;;;;;;16.70;12.50;;;1.80;99.90;;;;;;5041451;28;20060;-63
2022/03/01 01:45:19;;;;;;;16.48;12.55;;;1.90;99.90;;;;;;5042921;28;20072;-62
2022/03/01 01:47:46;;;;;;;16.90;12.60;;;1.80;99.90;;;;;;5043422;28;20056;-62
2022/03/01 01:50:13;;;;;;;17.60;13.35;;;1.80;99.90;;;;;;5042080;28;20105;-62
2022/03/01 01:52:39;;;;;;;17.95;13.77;;;1.80;99.90;;;;;;5041706;28;20041;-63
2022/03/01 01:55:06;;;;;;;16.63;13.38;;;1.80;99.90;;;;;;5042403;28;20053;-63
2022/03/01 01:57:32;;;;;;;17.95;12.68;;;1.80;99.90;;;;;;5041999;28;20741;-62
2022/03/01 02:00:00;;;;;;;16.90;13.43;;;1.80;99.90;;;;;;5044458;28;20562;-63
2022/03/01 02:02:27;;;;;;;18.42;14.07;;;1.80;99.90;;;;;;5043670;28;20087;-63
2022/03/01 02:04:53;;;;;;;17.08;13.18;;;1.80;99.90;;;;;;5042755;28;20044;-63
2022/03/01 02:07:19;;;;;;;15.93;12.52;;;1.70;99.90;;;;;;5040809;28;20057;-63
2022/03/01 02:09:45;;;;;;;16.45;12.77;;;1.80;99.90;;;;;;5042791;28;20766;-63
2022/03/01 02:12:11;;;;;;;18.35;14.13;;;1.80;99.90;;;;;;5044128;28;20044;-63
2022/03/01 02:14:39;;;;;;;17.20;12.82;;;1.80;99.90;;;;;;5041245;28;20045;-63
2022/03/01 02:17:08;;;;;;;16.95;13.55;;;1.70;99.90;;;;;;5040757;28;20080;-62
2022/03/01 02:19:35;;;;;;;16.83;13.18;;;1.60;99.90;;;;;;5039912;28;20048;-63
2022/03/01 02:22:01;;;;;;;15.15;12.43;;;1.60;99.90;;;;;;5042673;28;20053;-62
2022/03/01 02:24:29;;;;;;;18.38;12.75;;;1.50;99.90;;;;;;5056725;28;20057;-62
2022/03/01 02:26:56;;;;;;;20.20;14.35;;;1.50;99.90;;;;;;5040548;28;20045;-63
2022/03/01 02:29:23;;;;;;;18.10;14.15;;;1.50;99.90;;;;;;5043099;28;20150;-63
2022/03/01 02:31:51;;;;;;;18.15;14.40;;;1.40;99.90;;;;;;5042973;28;20037;-63
2022/03/01 02:34:17;;;;;;;18.92;13.70;;;1.40;99.90;;;;;;5043131;28;20049;-63
2022/03/01 02:36:44;;;;;;;18.10;13.35;;;1.40;99.90;;;;;;5042997;28;20080;-63
2022/03/01 02:39:10;;;;;;;17.88;13.35;;;1.40;99.90;;;;;;5041454;28;20057;-63
2022/03/01 02:41:41;;;;;;;19.40;13.95;;;1.40;99.90;;;;;;5041260;28;20040;-63
2022/03/01 02:44:07;;;;;;;19.60;14.38;;;1.40;99.90;;;;;;5042861;28;20591;-63
2022/03/01 02:46:34;;;;;;;19.10;14.23;;;1.40;99.90;;;;;;5045646;28;20057;-62
2022/03/01 02:49:01;;;;;;;16.27;13.13;;;1.40;99.90;;;;;;5045609;28;20052;-63
2022/03/01 02:51:27;;;;;;;16.63;13.60;;;1.40;99.90;;;;;;5046347;28;20117;-62
2022/03/01 02:53:54;;;;;;;19.50;13.82;;;1.40;99.90;;;;;;5044775;28;20611;-62
2022/03/01 02:56:21;;;;;;;19.33;14.23;;;1.30;99.90;;;;;;5044973;28;20041;-62
2022/03/01 02:58:47;;;;;;;19.23;14.82;;;1.40;99.90;;;;;;5045925;28;21461;-62
2022/03/01 03:01:13;;;;;;;19.45;15.25;;;1.40;99.90;;;;;;5045722;28;20053;-62
2022/03/01 03:03:39;;;;;;;18.92;13.48;;;1.40;99.90;;;;;;5045631;28;20045;-63
2022/03/01 03:06:06;;;;;;;18.88;13.98;;;1.30;99.90;;;;;;5011821;28;20496;-62
2022/03/01 03:08:32;;;;;;;19.42;14.55;;;1.40;99.90;;;;;;5044198;28;20052;-62
2022/03/01 03:10:59;;;;;;;19.23;15.20;;;1.40;99.90;;;;;;5046811;28;20523;-62
2022/03/01 03:13:26;;;;;;;19.27;15.07;;;1.30;99.90;;;;;;5043560;28;20051;-62
2022/03/01 03:15:52;;;;;;;19.08;14.10;;;1.30;99.90;;;;;;5025112;28;20678;-63
2022/03/01 03:18:19;;;;;;;19.98;14.05;;;1.30;99.90;;;;;;5029015;28;20526;-62
2022/03/01 03:20:45;;;;;;;19.10;14.77;;;1.30;99.90;;;;;;5044948;28;20078;-62
2022/03/01 03:23:11;;;;;;;17.63;14.52;;;1.30;99.90;;;;;;5029352;28;20128;-63
2022/03/01 03:25:37;;;;;;;20.08;14.05;;;1.30;99.90;;;;;;5045299;28;20049;-62
2022/03/01 03:28:04;;;;;;;20.00;13.75;;;1.30;99.90;;;;;;5045194;28;20056;-62
2022/03/01 03:30:31;;;;;;;20.08;15.05;;;1.30;99.90;;;;;;5046310;28;20076;-62
2022/03/01 03:32:57;;;;;;;19.15;14.13;;;1.30;99.90;;;;;;5046214;28;20045;-62
2022/03/01 03:35:23;;;;;;;17.55;14.68;;;1.20;99.90;;;;;;5047122;28;20055;-62
2022/03/01 03:37:49;;;;;;;21.17;15.45;;;1.20;99.90;;;;;;5029297;28;20523;-62
2022/03/01 03:40:15;;;;;;;20.90;15.93;;;1.20;99.90;;;;;;5044339;28;20053;-63
2022/03/01 03:42:44;;;;;;;19.02;14.43;;;1.20;99.90;;;;;;5043021;28;20060;-64
2022/03/01 03:45:12;;;;;;;18.52;14.05;;;1.10;99.90;;;;;;5057727;28;20764;-63
2022/03/01 03:47:39;;;;;;;22.60;14.48;;;1.10;99.90;;;;;;5046247;28;20140;-63
2022/03/01 03:50:09;;;;;;;18.63;14.70;;;1.10;99.90;;;;;;5043508;28;20056;-63
2022/03/01 03:52:39;;;;;;;22.65;16.52;;;1.00;99.90;;;;;;5045725;28;20052;-63
2022/03/01 03:55:07;;;;;;;24.00;15.70;;;1.10;99.90;;;;;;5024411;28;20045;-63
2022/03/01 03:57:35;;;;;;;18.85;14.38;;;1.10;99.90;;;;;;5026835;28;21222;-63
2022/03/01 04:00:09;;;;;;;20.08;14.77;;;1.10;99.90;;;;;;5044284;28;20111;-63
2022/03/01 04:02:35;;;;;;;24.80;15.50;;;1.10;99.90;;;;;;5044609;28;20041;-63
2022/03/01 04:05:01;;;;;;;19.65;14.25;;;1.20;99.90;;;;;;5045239;28;20045;-63
2022/03/01 04:07:29;;;;;;;19.92;15.60;;;1.20;99.90;;;;;;5045169;28;20055;-62
2022/03/01 04:09:56;;;;;;;22.70;15.07;;;1.10;99.90;;;;;;5044999;28;20832;-63
2022/03/01 04:12:22;;;;;;;21.92;15.45;;;1.20;99.90;;;;;;5032421;28;20778;-62
2022/03/01 04:14:48;;;;;;;19.80;15.32;;;1.20;99.90;;;;;;5035433;28;20052;-62
2022/03/01 04:17:14;;;;;;;18.77;14.82;;;1.20;99.90;;;;;;5045556;28;20060;-63
2022/03/01 04:19:40;;;;;;;21.50;16.92;;;1.30;99.90;;;;;;5027515;28;20060;-63
2022/03/01 04:22:06;;;;;;;19.95;14.80;;;1.40;99.90;;;;;;5043444;28;20119;-62
2022/03/01 04:24:32;;;;;;;20.13;15.43;;;1.30;99.90;;;;;;5036400;28;20060;-63
2022/03/01 04:26:58;;;;;;;21.75;15.90;;;1.20;99.90;;;;;;5043561;28;20207;-63
2022/03/01 04:29:24;;;;;;;20.33;14.85;;;1.20;99.90;;;;;;5043010;28;20052;-62
2022/03/01 04:31:51;;;;;;;23.13;16.50;;;1.20;99.90;;;;;;5044486;28;20051;-62
2022/03/01 04:34:17;;;;;;;20.27;14.65;;;1.30;99.90;;;;;;5043284;28;20136;-62
2022/03/01 04:36:43;;;;;;;19.25;15.05;;;1.20;99.90;;;;;;5042939;28;20851;-62
2022/03/01 04:39:10;;;;;;;18.52;14.80;;;1.20;99.90;;;;;;5043270;28;20110;-63
2022/03/01 04:41:36;;;;;;;20.83;15.75;;;1.20;99.90;;;;;;5045284;28;20053;-63
2022/03/01 04:44:02;;;;;;;21.90;15.40;;;1.20;99.90;;;;;;5041051;28;20041;-62
2022/03/01 04:46:28;;;;;;;18.48;14.65;;;1.20;99.90;;;;;;5029979;28;20057;-62
2022/03/01 04:48:54;;;;;;;19.05;14.95;;;1.20;99.90;;;;;;5013625;28;20810;-63
2022/03/01 04:51:21;;;;;;;17.77;14.98;;;1.30;99.90;;;;;;5043577;28;20479;-63
2022/03/01 04:53:51;;;;;;;20.90;14.82;;;1.30;99.90;;;;;;5040665;28;20459;-63
2022/03/01 04:56:17;;;;;;;21.23;14.75;;;1.30;99.90;;;;;;5009990;28;20707;-63
2022/03/01 04:58:43;;;;;;;20.80;14.23;;;1.30;99.90;;;;;;5043060;28;20086;-63
2022/03/01 05:01:09;;;;;;;20.70;14.40;;;1.30;99.90;;;;;;5025456;28;20049;-63
2022/03/01 05:03:35;;;;;;;20.52;14.48;;;1.30;99.90;;;;;;5042831;28;20399;-62
2022/03/01 05:06:01;;;;;;;19.63;15.30;;;1.30;99.90;;;;;;5026610;28;20055;-63
2022/03/01 05:08:30;;;;;;;20.35;15.57;;;1.30;99.90;;;;;;5039130;28;20119;-63
2022/03/01 05:11:05;;;;;;;20.00;14.93;;;1.30;99.90;;;;;;5042873;28;20491;-63
2022/03/01 05:13:31;;;;;;;18.80;14.32;;;1.30;99.90;;;;;;5023983;28;20758;-63
2022/03/01 05:15:58;;;;;;;23.17;15.25;;;1.40;99.90;;;;;;5041347;28;20101;-63
2022/03/01 05:18:24;;;;;;;21.38;15.77;;;1.40;99.90;;;;;;5045688;28;20496;-63
2022/03/01 05:20:51;;;;;;;21.17;15.80;;;1.40;99.90;;;;;;5026911;28;20056;-63
2022/03/01 05:23:18;;;;;;;18.30;14.25;;;1.50;99.90;;;;;;5040950;28;20160;-62
2022/03/01 05:25:44;;;;;;;20.98;15.50;;;1.50;99.90;;;;;;5041928;28;20045;-62
2022/03/01 05:28:10;;;;;;;17.25;14.23;;;1.50;99.90;;;;;;5042285;28;20053;-62
2022/03/01 05:30:37;;;;;;;21.05;15.45;;;1.60;99.90;;;;;;5043412;28;20060;-62
2022/03/01 05:33:03;;;;;;;20.75;14.95;;;1.60;99.90;;;;;;5043843;28;20057;-62
2022/03/01 05:35:30;;;;;;;20.83;15.38;;;1.70;99.90;;;;;;5039890;28;20056;-62
2022/03/01 05:37:57;;;;;;;19.77;15.13;;;1.60;99.90;;;;;;5043564;28;20083;-62
2022/03/01 05:40:26;;;;;;;18.70;14.93;;;1.60;99.90;;;;;;5042105;28;20138;-62
2022/03/01 05:42:53;;;;;;;22.65;15.32;;;1.60;99.90;;;;;;5040124;28;20055;-62
2022/03/01 05:45:20;;;;;;;19.90;15.18;;;1.60;99.90;;;;;;5040388;28;20049;-62
2022/03/01 05:47:46;;;;;;;19.63;14.52;;;1.60;99.90;;;;;;4992608;28;20049;-62
2022/03/01 05:50:14;;;;;;;19.08;14.20;;;1.60;99.90;;;;;;5042767;28;20056;-64
2022/03/01 05:52:41;;;;;;;20.23;14.85;;;1.70;99.90;;;;;;5026927;28;20060;-63
2022/03/01 05:55:08;;;;;;;20.23;14.90;;;1.70;99.90;;;;;;5041076;28;20071;-62
2022/03/01 05:57:35;;;;;;;20.98;14.48;;;1.70;99.90;;;;;;5042315;28;20726;-62
2022/03/01 06:00:04;;;;;;;19.42;15.57;;;1.60;99.90;;;;;;5042602;28;20053;-62
2022/03/01 06:02:39;;;;;;;19.58;14.27;;;1.60;99.90;;;;;;5041035;28;20057;-62
2022/03/01 06:05:06;;;;;;;20.20;14.90;;;1.70;99.90;;;;;;5020853;28;20045;-62
2022/03/01 06:07:32;;;;;;;22.23;15.90;;;1.70;99.90;;;;;;5041858;28;20511;-62
2022/03/01 06:09:58;;;;;;;20.15;15.27;;;1.70;99.90;;;;;;5047582;28;20045;-65
2022/03/01 06:12:24;;;;;;;20.05;15.95;;;1.60;99.90;;;;;;5037750;28;20044;-62
2022/03/01 06:14:50;;;;;;;20.40;15.05;;;1.60;99.90;;;;;;5039317;28;20068;-62
2022/03/01 06:17:16;;;;;;;19.08;14.40;;;1.60;99.90;;;;;;5061102;28;20050;-62
2022/03/01 06:19:43;;;;;;;21.98;14.52;;;1.60;99.90;;;;;;5043722;28;20613;-62
2022/03/01 06:22:09;;;;;;;18.77;14.45;;;1.60;99.90;;;;;;5041814;28;20419;-62
2022/03/01 06:24:40;;;;;;;21.15;14.60;;;1.50;99.90;;;;;;5044809;28;20057;-62
2022/03/01 06:27:06;;;;;;;20.65;15.27;;;1.60;99.90;;;;;;5045213;28;20750;-60
2022/03/01 06:29:34;;;;;;;21.30;16.02;;;1.60;99.90;;;;;;5039539;28;20045;-62
2022/03/01 06:32:00;;;;;;;21.60;16.35;;;1.60;99.90;;;;;;5042054;28;20087;-63
2022/03/01 06:34:26;;;;;;;21.10;15.45;;;1.60;99.90;;;;;;5043826;28;20052;-62
2022/03/01 06:36:52;;;;;;;20.92;16.23;;;1.60;99.90;;;;;;5042014;28;20134;-62
2022/03/01 06:39:18;;;;;;;25.13;17.13;;;1.60;99.90;;;;;;5040578;28;20048;-62
2022/03/01 06:41:44;;;;;;;20.90;16.13;;;1.60;99.90;;;;;;5040845;28;20730;-62
2022/03/01 06:44:10;;;;;;;20.85;16.05;;;1.60;99.90;;;;;;5041923;28;20040;-63
2022/03/01 06:46:37;;;;;;;18.85;15.10;;;1.70;99.90;;;;;;5036471;28;20049;-63
2022/03/01 06:49:03;;;;;;;19.63;16.40;;;1.60;99.90;;;;;;5022887;28;20053;-60
2022/03/01 06:51:30;;;;;;;21.10;16.83;;;1.70;99.90;;;;;;5040322;28;20055;-63
2022/03/01 06:53:56;;;;;;;21.73;16.10;;;1.70;99.90;;;;;;5040531;28;20064;-63
2022/03/01 06:56:22;;;;;;;21.13;17.02;;;1.70;99.90;;;;;;5041071;28;20068;-63
2022/03/01 06:58:48;;;;;;;20.70;15.20;;;1.80;99.90;;;;;;5040573;28;20153;-61
2022/03/01 07:01:14;;;;;;;22.50;16.45;;;1.80;99.90;;;;;;5041864;28;20041;-62
2022/03/01 07:03:42;;;;;;;23.50;16.67;;;1.80;99.90;;;;;;5041794;28;20060;-62
2022/03/01 07:06:09;;;;;;;22.70;16.65;;;1.90;99.90;;;;;;5023758;28;20068;-63
2022/03/01 07:08:35;;;;;;;23.25;16.30;;;1.90;99.90;;;;;;5023172;28;20069;-62
2022/03/01 07:11:01;;;;;;;22.23;16.17;;;1.90;99.90;;;;;;5008952;28;20095;-62
2022/03/01 07:13:27;;;;;;;22.33;16.42;;;2.00;99.90;;;;;;5041060;28;20124;-63
2022/03/01 07:15:53;;;;;;;22.40;17.27;;;2.00;99.90;;;;;;5042171;28;20102;-62
2022/03/01 07:18:19;;;;;;;23.70;16.77;;;2.20;99.90;;;;;;5041711;28;20124;-63
2022/03/01 07:20:45;;;;;;;26.00;16.52;;;2.20;99.90;;;;;;5042656;28;20559;-63
2022/03/01 07:23:11;;;;;;;20.38;16.05;;;2.30;99.90;;;;;;5043528;28;20194;-63
2022/03/01 07:25:38;;;;;;;22.73;16.35;;;2.40;99.90;;;;;;5041670;28;20049;-63
2022/03/01 07:28:04;;;;;;;22.63;16.58;;;2.50;99.90;;;;;;5043258;28;20444;-63
2022/03/01 07:30:31;;;;;;;24.55;17.40;;;2.60;99.90;;;;;;5024264;28;20041;-63
2022/03/01 07:32:58;;;;;;;27.52;17.70;;;2.60;99.90;;;;;;5044998;28;20045;-63
2022/03/01 07:35:25;;;;;;;22.88;16.05;;;2.70;99.90;;;;;;5045473;28;20102;-63
2022/03/01 07:37:52;;;;;;;21.70;17.15;;;2.80;99.90;;;;;;5046874;28;20053;-63
2022/03/01 07:40:20;;;;;;;21.13;15.73;;;2.80;99.90;;;;;;5047063;28;20091;-63
2022/03/01 07:42:46;;;;;;;21.02;16.90;;;2.90;99.90;;;;;;5046547;28;20123;-63
2022/03/01 07:45:13;;;;;;;21.02;16.77;;;3.00;99.90;;;;;;5028605;28;20110;-62
2022/03/01 07:47:39;;;;;;;22.70;16.38;;;3.10;99.90;;;;;;5046077;28;20045;-62
2022/03/01 07:50:07;;;;;;;23.27;16.17;;;3.10;99.90;;;;;;5028378;28;20053;-62
2022/03/01 07:52:33;;;;;;;22.58;16.63;;;3.20;99.90;;;;;;5046196;28;20045;-63
2022/03/01 07:54:59;;;;;;;21.98;16.67;;;3.30;99.90;;;;;;5045105;28;20148;-63
2022/03/01 07:57:25;;;;;;;23.38;17.25;;;3.40;99.90;;;;;;5044272;28;20850;-63
2022/03/01 07:59:52;;;;;;;20.73;15.98;;;3.40;99.90;;;;;;5045813;28;20123;-63
2022/03/01 08:02:18;;;;;;;23.00;16.80;;;3.50;99.90;;;;;;5044181;28;20091;-63
2022/03/01 08:04:44;;;;;;;21.02;15.68;;;3.60;99.90;;;;;;5028285;28;20500;-63
2022/03/01 08:07:11;;;;;;;20.38;16.38;;;3.60;99.90;;;;;;5045317;28;20049;-64
2022/03/01 08:09:39;;;;;;;22.63;16.65;;;3.70;99.90;;;;;;5011903;28;20606;-63
2022/03/01 08:12:06;;;;;;;21.45;16.05;;;3.70;99.90;;;;;;5045646;28;20490;-63
2022/03/01 08:14:34;;;;;;;20.77;15.80;;;3.60;99.90;;;;;;5028515;28;20048;-63
2022/03/01 08:17:01;;;;;;;21.55;16.27;;;3.60;99.90;;;;;;5046651;28;20140;-63
2022/03/01 08:19:27;;;;;;;22.27;16.30;;;3.60;99.90;;;;;;5044579;28;20047;-63
2022/03/01 08:21:54;;;;;;;19.98;15.57;;;3.70;99.90;;;;;;5027638;28;20873;-63
2022/03/01 08:24:21;;;;;;;23.25;15.45;;;3.80;99.90;;;;;;5044595;28;20602;-63
2022/03/01 08:26:49;;;;;;;18.83;14.57;;;3.80;99.90;;;;;;5044201;28;20045;-62
2022/03/01 08:29:17;;;;;;;19.50;14.65;;;3.90;99.90;;;;;;5044192;28;20060;-63
2022/03/01 08:31:43;;;;;;;19.33;14.98;;;4.00;99.90;;;;;;5044701;28;20041;-63
2022/03/01 08:34:09;;;;;;;18.48;14.40;;;4.10;99.90;;;;;;5044265;28;20075;-63
2022/03/01 08:36:35;;;;;;;20.63;15.10;;;4.20;99.90;;;;;;5045874;28;20045;-63
2022/03/01 08:39:03;;;;;;;20.23;13.80;;;4.30;99.90;;;;;;5011920;28;20373;-62
2022/03/01 08:41:29;;;;;;;19.70;13.77;;;4.40;99.90;;;;;;5045456;28;20044;-62
2022/03/01 08:43:55;;;;;;;18.52;13.93;;;4.60;99.90;;;;;;5010354;28;20056;-62
2022/03/01 08:46:23;;;;;;;20.33;14.77;;;4.80;99.90;;;;;;5044413;28;20480;-63
2022/03/01 08:48:53;;;;;;;17.60;13.57;;;5.00;99.90;;;;;;5045041;28;20519;-63
2022/03/01 08:51:21;;;;;;;17.85;14.35;;;5.20;99.90;;;;;;5045446;28;20045;-62
2022/03/01 08:53:48;;;;;;;21.52;14.52;;;5.40;99.90;;;;;;5044816;28;20057;-63
2022/03/01 08:56:15;;;;;;;16.15;12.88;;;5.60;99.90;;;;;;5045178;28;20053;-63
2022/03/01 08:58:45;;;;;;;19.15;14.20;;;5.80;99.90;;;;;;5045109;28;20045;-64
2022/03/01 09:01:11;;;;;;;19.50;14.63;;;5.90;99.90;;;;;;5044835;28;20060;-62
2022/03/01 09:03:38;;;;;;;17.30;14.57;;;5.90;99.90;;;;;;5044298;28;20096;-63
2022/03/01 09:06:05;;;;;;;16.50;13.95;;;5.90;99.90;;;;;;5027428;28;20048;-63
2022/03/01 09:08:33;;;;;;;18.77;14.65;;;6.00;99.90;;;;;;5043760;28;20051;-63
2022/03/01 09:10:59;;;;;;;20.15;14.88;;;6.00;99.90;;;;;;5045013;28;20069;-63
2022/03/01 09:13:25;;;;;;;19.70;15.25;;;6.10;99.90;;;;;;5027452;28;20051;-63
2022/03/01 09:15:52;;;;;;;18.08;14.90;;;6.20;99.90;;;;;;5044396;28;20044;-63
2022/03/01 09:18:18;;;;;;;19.20;15.32;;;6.40;99.90;;;;;;5043492;28;20051;-63
2022/03/01 09:20:44;;;;;;;19.65;14.90;;;6.50;99.90;;;;;;5044638;28;20048;-63
2022/03/01 09:23:10;;;;;;;16.60;14.13;;;6.50;99.90;;;;;;5044594;28;20053;-63
2022/03/01 09:25:36;;;;;;;18.50;14.68;;;6.50;99.90;;;;;;5043060;28;20041;-63
2022/03/01 09:28:02;;;;;;;22.30;15.57;;;6.60;99.90;;;;;;5044820;28;20064;-63
2022/03/01 09:30:29;;;;;;;17.63;14.75;;;6.70;99.90;;;;;;5045129;28;20827;-63
2022/03/01 09:32:55;;;;;;;17.25;14.18;;;7.00;99.90;;;;;;5043768;28;20153;-63
2022/03/01 09:35:22;;;;;;;18.27;14.40;;;7.10;99.90;;;;;;5026874;28;20045;-63
2022/03/01 09:37:48;;;;;;;18.48;15.18;;;7.20;99.90;;;;;;5044057;28;20124;-63
2022/03/01 09:40:14;;;;;;;20.02;15.32;;;7.20;99.90;;;;;;5043747;28;20049;-63
2022/03/01 09:42:42;;;;;;;20.10;15.00;;;7.20;99.90;;;;;;5043878;28;20139;-63
2022/03/01 09:45:10;;;;;;;19.15;15.70;;;7.30;99.90;;;;;;5043040;28;20048;-63
2022/03/01 09:47:37;;;;;;;18.45;15.82;;;7.50;99.90;;;;;;5042659;28;20044;-63
2022/03/01 09:50:06;;;;;;;21.02;15.35;;;7.60;99.90;;;;;;5042920;28;20123;-63
2022/03/01 09:52:32;;;;;;;18.60;15.05;;;7.70;99.90;;;;;;5042195;28;20691;-62
2022/03/01 09:54:59;;;;;;;19.90;15.70;;;7.80;99.90;;;;;;5043556;28;20770;-63
2022/03/01 09:57:25;;;;;;;17.05;15.20;;;7.90;99.90;;;;;;5042396;28;20057;-63
2022/03/01 09:59:51;;;;;;;19.33;14.55;;;7.90;99.90;;;;;;5042901;28;20074;-62
2022/03/01 10:02:19;;;;;;;16.33;14.40;;;7.80;99.90;;;;;;5026087;28;20135;-63
2022/03/01 10:04:57;;;;;;;18.38;13.57;;;7.60;99.90;;;;;;5043721;28;20060;-63
2022/03/01 10:07:26;;;;;;;17.17;15.30;;;7.50;99.90;;;;;;5025629;28;20053;-63
2022/03/01 10:09:53;;;;;;;22.58;16.67;;;7.40;99.90;;;;;;5043829;28;20045;-63
2022/03/01 10:12:23;;;;;;;21.70;15.07;;;7.40;99.90;;;;;;5043604;28;20048;-63
2022/03/01 10:15:06;;;;;;;23.50;14.88;;;7.50;99.90;;;;;;5043493;28;20495;-63
2022/03/01 10:17:37;;;;;;;17.30;14.60;;;7.60;99.90;;;;;;5025260;28;20056;-63
2022/03/01 10:20:18;;;;;;;17.60;15.40;;;8.00;99.90;;;;;;5042851;28;20060;-63
2022/03/01 10:22:47;;;;;;;18.45;14.85;;;8.50;99.90;;;;;;5043818;28;20053;-63
2022/03/01 10:25:16;;;;;;;18.80;15.27;;;9.20;99.90;;;;;;5042334;28;20044;-63
2022/03/01 10:27:44;;;;;;;19.52;15.18;;;10.20;99.90;;;;;;4992827;28;20400;-63
2022/03/01 10:30:11;;;;;;;18.80;15.45;;;11.20;99.00;;;;;;5041908;28;20593;-64
2022/03/01 10:32:37;;;;;;;19.13;15.00;;;12.00;87.80;;;;;;5042741;28;20072;-64
2022/03/01 10:35:08;;;;;;;18.67;15.82;;;12.70;66.20;;;;;;5025916;28;20082;-64
2022/03/01 10:37:40;;;;;;;19.55;14.95;;;13.40;68.70;;;;;;5043609;28;20151;-64
2022/03/01 10:40:16;;;;;;;19.02;15.80;;;14.00;57.80;;;;;;5043460;28;20826;-64
2022/03/01 10:42:43;;;;;;;15.80;13.80;;;14.70;59.40;;;;;;5025509;28;20056;-64
2022/03/01 10:45:10;;;;;;;18.05;14.93;;;15.00;59.60;;;;;;5042123;28;20056;-65
2022/03/01 10:47:37;;;;;;;17.60;14.80;;;14.70;57.50;;;;;;5043012;28;20115;-64
2022/03/01 10:50:11;;;;;;;18.92;14.98;;;14.40;52.30;;;;;;5043820;28;20045;-64
2022/03/01 10:52:39;;;;;;;15.52;13.93;;;13.90;53.00;;;;;;5042635;28;20041;-64
2022/03/01 10:55:20;;;;;;;19.50;14.65;;;14.10;54.00;;;;;;5042053;28;20777;-65
2022/03/01 10:58:00;;;;;;;16.73;14.88;;;14.10;53.60;;;;;;5043949;28;20051;-63
2022/03/01 11:00:27;;;;;;;15.43;13.82;;;14.70;53.60;;;;;;5043727;28;20659;-63
2022/03/01 11:02:53;;;;;;;16.60;14.45;;;15.10;53.30;;;;;;5042436;28;20041;-62
2022/03/01 11:05:19;;;;;;;16.33;14.63;;;15.20;52.00;;;;;;5044013;28;20052;-62
2022/03/01 11:07:48;;;;;;;15.68;14.00;;;14.70;49.60;;;;;;5045239;28;20059;-62
2022/03/01 11:10:16;;;;;;;16.33;13.73;;;14.30;48.20;;;;;;5045704;28;20095;-64
2022/03/01 11:12:45;;;;;;;18.05;13.27;;;13.60;49.00;;;;;;5046781;28;20045;-64
2022/03/01 11:15:26;;;;;;;15.32;13.43;;;13.20;50.80;;;;;;5046078;28;20742;-64
2022/03/01 11:18:05;;;;;;;16.42;14.30;;;12.60;49.60;;;;;;5047350;28;20044;-64
2022/03/01 11:20:35;;;;;;;17.48;15.00;;;12.10;52.40;;;;;;5047730;28;20132;-64
2022/03/01 11:23:06;;;;;;;18.08;16.17;;;12.00;55.90;;;;;;5046723;28;20095;-63
2022/03/01 11:25:41;;;;;;;16.60;14.80;;;11.80;56.30;;;;;;5045281;28;20044;-63
2022/03/01 11:28:09;;;;;;;19.45;15.23;;;11.80;57.70;;;;;;5029272;28;20538;-64
2022/03/01 11:30:38;;;;;;;17.08;15.05;;;11.50;57.90;;;;;;5047043;28;20048;-64
2022/03/01 11:33:05;;;;;;;18.85;14.95;;;11.50;58.10;;;;;;5028461;28;20056;-63
2022/03/01 11:35:53;;;;;;;19.42;15.95;;;11.50;57.50;;;;;;5045160;28;20076;-63
2022/03/01 11:38:24;;;;;;;18.13;14.95;;;11.40;57.00;;;;;;5045413;28;20110;-63
2022/03/01 11:40:51;;;;;;;18.35;15.15;;;11.20;57.00;;;;;;5045449;28;20436;-63
2022/03/01 11:43:22;;;;;;;18.08;14.65;;;11.10;57.30;;;;;;5046303;28;20056;-63
2022/03/01 11:45:57;;;;;;;17.48;15.40;;;11.00;56.80;;;;;;5045894;28;20832;-63
2022/03/01 11:48:26;;;;;;;17.70;15.80;;;11.10;55.60;;;;;;5046882;28;20057;-63
2022/03/01 11:51:03;;;;;;;19.40;15.57;;;11.60;56.30;;;;;;5028814;28;20037;-63
2022/03/01 11:53:34;;;;;;;17.60;15.00;;;12.10;55.10;;;;;;5044890;28;20053;-63
2022/03/01 11:56:03;;;;;;;16.47;14.13;;;12.10;53.20;;;;;;5045615;28;20073;-63
2022/03/01 11:58:33;;;;;;;16.55;14.63;;;12.40;53.90;;;;;;5046970;28;21234;-63
2022/03/01 12:01:03;;;;;;;17.30;15.43;;;12.60;53.60;;;;;;5047122;28;20135;-63
2022/03/01 12:03:29;;;;;;;16.80;14.55;;;12.90;52.60;;;;;;5044917;28;20049;-64
2022/03/01 12:05:56;;;;;;;17.92;15.35;;;13.30;52.10;;;;;;5045156;28;20037;-63
2022/03/01 12:08:22;;;;;;;17.80;14.23;;;12.90;51.10;;;;;;5044959;28;20128;-63
2022/03/01 12:11:00;;;;;;;17.70;15.00;;;12.60;50.90;;;;;;5027688;28;20045;-64
2022/03/01 12:13:34;;;;;;;17.25;15.48;;;12.40;52.90;;;;;;5044975;28;20064;-64
2022/03/01 12:16:02;;;;;;;17.98;15.82;;;12.30;54.50;;;;;;5027413;28;20570;-63
2022/03/01 12:18:32;;;;;;;17.63;15.55;;;12.00;54.90;;;;;;5043796;28;20049;-63
2022/03/01 12:21:05;;;;;;;16.90;14.95;;;11.90;56.00;;;;;;5046191;28;20059;-63
2022/03/01 12:23:32;;;;;;;17.38;15.52;;;11.50;54.80;;;;;;5045828;28;20048;-64
2022/03/01 12:26:01;;;;;;;16.98;15.27;;;11.60;55.40;;;;;;5027807;28;20049;-63
2022/03/01 12:28:37;;;;;;;18.50;15.07;;;11.50;56.00;;;;;;5010912;28;20053;-63
2022/03/01 12:31:12;;;;;;;16.85;15.10;;;11.70;58.60;;;;;;5045171;28;20051;-63
2022/03/01 12:33:52;;;;;;;19.10;15.55;;;11.70;59.20;;;;;;5007353;28;20064;-62
2022/03/01 12:36:28;;;;;;;17.20;14.00;;;12.20;55.30;;;;;;5040384;28;20048;-63